createdAt,value
2018-07-19T00:01:15.017Z,16.00
2018-07-19T00:03:42.135Z,16.00
2018-07-19T00:06:09.124Z,16.00
2018-07-19T00:08:36.073Z,16.00
2018-07-19T00:11:04.114Z,16.10
2018-07-19T00:13:31.252Z,16.10
2018-07-19T00:15:59.090Z,16.20
2018-07-19T00:18:25.926Z,16.20
2018-07-19T00:20:53.180Z,16.30
2018-07-19T00:23:22.283Z,16.30
2018-07-19T00:25:49.235Z,16.30
2018-07-19T00:28:16.903Z,16.30
2018-07-19T00:30:44.163Z,16.20
2018-07-19T00:33:12.134Z,16.20
2018-07-19T00:35:39.230Z,16.20
2018-07-19T00:38:07.527Z,16.20
2018-07-19T00:40:36.116Z,16.20
2018-07-19T00:43:03.861Z,16.20
2018-07-19T00:45:33.030Z,16.30
2018-07-19T00:48:00.066Z,16.20
2018-07-19T00:50:27.755Z,16.30
2018-07-19T00:52:54.607Z,16.30
2018-07-19T00:55:21.555Z,16.30
2018-07-19T00:57:48.506Z,16.20
2018-07-19T01:00:16.275Z,16.20
2018-07-19T01:02:43.298Z,16.10
2018-07-19T01:05:10.485Z,16.10
2018-07-19T01:07:38.868Z,16.00
2018-07-19T01:10:05.718Z,16.00
2018-07-19T01:12:32.769Z,16.00
2018-07-19T01:14:59.936Z,15.90
2018-07-19T01:17:26.776Z,15.90
2018-07-19T01:19:53.729Z,15.90
2018-07-19T01:22:20.577Z,15.80
2018-07-19T01:24:47.427Z,15.70
2018-07-19T01:27:14.375Z,15.70
2018-07-19T01:29:41.536Z,15.70
2018-07-19T01:32:08.687Z,15.60
2018-07-19T01:34:35.641Z,15.50
2018-07-19T01:37:03.308Z,15.40
2018-07-19T01:39:30.361Z,15.40
2018-07-19T01:41:57.311Z,15.40
2018-07-19T01:44:24.365Z,15.40
2018-07-19T01:46:51.215Z,15.30
2018-07-19T01:49:18.113Z,15.20
2018-07-19T01:51:45.220Z,15.20
2018-07-19T01:54:12.176Z,15.10
2018-07-19T01:56:39.021Z,15.10
2018-07-19T01:59:05.972Z,15.00
2018-07-19T02:01:33.435Z,15.00
2018-07-19T02:04:00.205Z,14.90
2018-07-19T02:06:27.032Z,14.90
2018-07-19T02:08:54.390Z,14.80
2018-07-19T02:11:21.447Z,14.70
2018-07-19T02:13:48.500Z,14.80
2018-07-19T02:16:15.449Z,14.80
2018-07-19T02:18:42.402Z,14.80
2018-07-19T02:21:10.888Z,14.80
2018-07-19T02:23:37.736Z,14.80
2018-07-19T02:26:04.693Z,14.80
2018-07-19T02:28:31.536Z,14.80
2018-07-19T02:30:58.385Z,14.80
2018-07-19T02:33:25.338Z,14.80
2018-07-19T02:35:52.187Z,14.90
2018-07-19T02:38:19.037Z,14.90
2018-07-19T02:40:45.789Z,14.90
2018-07-19T02:43:12.630Z,15.00
2018-07-19T02:45:39.583Z,15.00
2018-07-19T02:48:06.541Z,15.10
2018-07-19T02:50:33.995Z,15.10
2018-07-19T02:53:01.510Z,15.10
2018-07-19T02:55:29.126Z,15.20
2018-07-19T02:57:56.696Z,15.10
2018-07-19T03:00:24.358Z,15.10
2018-07-19T03:02:51.209Z,15.10
2018-07-19T03:05:18.159Z,15.20
2018-07-19T03:07:45.134Z,15.20
2018-07-19T03:10:12.676Z,15.50
2018-07-19T03:12:39.527Z,15.40
2018-07-19T03:15:07.193Z,15.60
2018-07-19T03:17:34.044Z,15.60
2018-07-19T03:20:00.995Z,15.60
2018-07-19T03:22:27.944Z,15.70
2018-07-19T03:24:55.612Z,15.80
2018-07-19T03:27:22.361Z,15.70
2018-07-19T03:29:49.208Z,15.80
2018-07-19T03:32:16.163Z,15.80
2018-07-19T03:34:43.111Z,15.80
2018-07-19T03:37:09.866Z,15.90
2018-07-19T03:39:36.809Z,16.00
2018-07-19T03:42:03.763Z,16.10
2018-07-19T03:44:30.713Z,16.10
2018-07-19T03:46:57.664Z,16.20
2018-07-19T03:49:24.617Z,16.30
2018-07-19T03:51:51.568Z,16.50
2018-07-19T03:54:18.618Z,16.50
2018-07-19T03:56:45.469Z,16.60
2018-07-19T03:59:12.316Z,17.20
2018-07-19T04:01:39.167Z,17.80
2018-07-19T04:04:07.146Z,18.10
2018-07-19T04:06:34.094Z,18.00
2018-07-19T04:09:01.044Z,18.10
2018-07-19T04:11:27.994Z,18.10
2018-07-19T04:13:54.948Z,18.40
2018-07-19T04:16:21.899Z,19.00
2018-07-19T04:18:48.746Z,19.40
2018-07-19T04:21:17.235Z,20.60
2018-07-19T04:23:43.997Z,20.60
2018-07-19T04:26:10.933Z,21.50
2018-07-19T04:28:39.418Z,22.70
2018-07-19T04:31:07.091Z,23.70
2018-07-19T04:33:33.936Z,23.60
2018-07-19T04:36:00.884Z,25.20
2018-07-19T04:38:27.838Z,26.60
2018-07-19T04:40:55.505Z,29.60
2018-07-19T04:43:22.457Z,29.50
2018-07-19T04:45:49.407Z,31.20
2018-07-19T04:48:16.413Z,32.60
2018-07-19T04:50:44.127Z,34.90
2018-07-19T04:53:10.980Z,34.80
2018-07-19T04:55:38.750Z,36.30
2018-07-19T04:58:06.925Z,36.80
2018-07-19T05:00:36.337Z,36.90
2018-07-19T05:03:03.284Z,36.80
2018-07-19T05:05:30.339Z,37.60
2018-07-19T05:07:57.395Z,37.30
2018-07-19T05:10:24.345Z,37.00
2018-07-19T05:12:51.711Z,36.10
2018-07-19T05:15:19.473Z,34.20
2018-07-19T05:17:47.859Z,35.20
2018-07-19T05:20:14.711Z,35.20
2018-07-19T05:22:41.660Z,37.20
2018-07-19T05:25:08.609Z,37.90
2018-07-19T05:27:35.562Z,38.30
2018-07-19T05:30:02.514Z,37.60
2018-07-19T05:32:29.464Z,37.90
2018-07-19T05:34:56.418Z,37.40
2018-07-19T05:37:23.780Z,36.50
2018-07-19T05:39:50.623Z,36.20
2018-07-19T05:42:17.893Z,36.70
2018-07-19T05:44:44.938Z,35.90
2018-07-19T05:47:11.991Z,35.90
2018-07-19T05:49:39.251Z,36.20
2018-07-19T05:52:06.302Z,37.40
2018-07-19T05:54:33.257Z,38.50
2018-07-19T05:57:00.109Z,40.10
2018-07-19T05:59:27.056Z,39.80
2018-07-19T06:01:54.007Z,40.90
2018-07-19T06:04:20.958Z,42.50
2018-07-19T06:06:47.912Z,42.50
2018-07-19T06:09:14.862Z,41.70
2018-07-19T06:11:41.709Z,42.80
2018-07-19T06:14:10.197Z,40.90
2018-07-19T06:16:37.149Z,40.80
2018-07-19T06:19:04.098Z,38.90
2018-07-19T06:21:30.947Z,39.10
2018-07-19T06:23:57.808Z,38.50
2018-07-19T06:26:24.850Z,38.30
2018-07-19T06:28:51.804Z,39.90
2018-07-19T06:31:18.651Z,39.40
2018-07-19T06:33:45.601Z,40.70
2018-07-19T06:36:12.554Z,40.30
2018-07-19T06:38:40.631Z,41.10
2018-07-19T06:41:08.043Z,41.00
2018-07-19T06:43:36.312Z,41.80
2018-07-19T06:46:03.226Z,41.70
2018-07-19T06:48:30.178Z,39.50
2018-07-19T06:50:57.027Z,39.30
2018-07-19T06:53:24.179Z,39.50
2018-07-19T06:55:51.029Z,41.60
2018-07-19T06:58:18.392Z,39.90
2018-07-19T07:00:45.343Z,41.20
2018-07-19T07:03:12.190Z,42.10
2018-07-19T07:05:39.038Z,42.20
2018-07-19T07:08:05.888Z,43.00
2018-07-19T07:10:33.046Z,43.50
2018-07-19T07:12:59.999Z,42.60
2018-07-19T07:15:27.663Z,40.90
2018-07-19T07:17:54.514Z,40.90
2018-07-19T07:20:21.360Z,42.00
2018-07-19T07:22:48.315Z,41.10
2018-07-19T07:25:15.263Z,40.60
2018-07-19T07:27:42.730Z,41.70
2018-07-19T07:30:10.292Z,40.10
2018-07-19T07:32:37.242Z,40.10
2018-07-19T07:35:04.115Z,40.40
2018-07-19T07:37:31.759Z,40.90
2018-07-19T07:39:58.524Z,41.00
2018-07-19T07:42:25.354Z,42.50
2018-07-19T07:44:52.311Z,41.90
2018-07-19T07:47:20.080Z,41.40
2018-07-19T07:49:47.337Z,41.40
2018-07-19T07:52:15.413Z,41.60
2018-07-19T07:54:42.364Z,41.60
2018-07-19T07:57:09.212Z,41.10
2018-07-19T07:59:36.268Z,38.90
2018-07-19T08:02:03.222Z,39.00
2018-07-19T08:04:30.579Z,39.90
2018-07-19T08:06:57.426Z,40.40
2018-07-19T08:09:25.095Z,38.40
2018-07-19T08:11:52.253Z,38.40
2018-07-19T08:14:19.201Z,40.10
2018-07-19T08:16:46.052Z,41.20
2018-07-19T08:19:13.311Z,41.30
2018-07-19T08:21:41.035Z,43.30
2018-07-19T08:24:07.827Z,43.30
2018-07-19T08:26:35.188Z,44.40
2018-07-19T08:29:02.043Z,43.90
2018-07-19T08:31:29.807Z,41.80
2018-07-19T08:33:57.063Z,41.70
2018-07-19T08:36:25.042Z,41.90
2018-07-19T08:38:51.890Z,43.50
2018-07-19T08:41:18.987Z,43.00
2018-07-19T08:43:46.534Z,41.30
2018-07-19T08:46:13.868Z,41.30
2018-07-19T08:48:40.717Z,41.60
2018-07-19T08:51:07.566Z,40.00
2018-07-19T08:53:34.517Z,40.10
2018-07-19T08:58:27.614Z,40.50
2018-07-19T09:00:54.759Z,39.00
2018-07-19T09:03:22.023Z,38.30
2018-07-19T09:05:49.473Z,38.50
2018-07-19T09:08:16.886Z,38.10
2018-07-19T09:10:43.697Z,37.20
2018-07-19T09:13:10.539Z,37.10
2018-07-19T09:15:37.593Z,37.50
2018-07-19T09:18:04.433Z,37.60
2018-07-19T09:20:31.799Z,36.20
2018-07-19T09:22:58.958Z,36.60
2018-07-19T09:25:25.810Z,36.20
2018-07-19T09:27:52.760Z,36.40
2018-07-19T09:30:19.606Z,35.60
2018-07-19T09:32:46.661Z,34.70
2018-07-19T09:35:14.326Z,34.00
2018-07-19T09:37:41.236Z,33.90
2018-07-19T09:40:08.843Z,34.50
2018-07-19T09:42:36.440Z,34.50
2018-07-19T09:45:05.100Z,35.20
2018-07-19T09:47:32.361Z,35.60
2018-07-19T09:49:59.412Z,35.70
2018-07-19T09:55:26.982Z,34.40
2018-07-19T09:57:54.240Z,34.40
2018-07-19T10:00:21.296Z,33.20
2018-07-19T10:02:48.759Z,33.30
2018-07-19T10:05:16.631Z,34.20
2018-07-19T10:07:43.575Z,34.20
2018-07-19T10:10:10.596Z,34.20
2018-07-19T10:12:37.998Z,34.50
2018-07-19T10:15:05.357Z,34.60
2018-07-19T10:17:32.207Z,34.40
2018-07-19T10:19:59.028Z,34.10
2018-07-19T10:22:27.346Z,32.70
2018-07-19T10:24:54.186Z,32.70
2018-07-19T10:27:21.035Z,32.50
2018-07-19T10:29:48.805Z,33.10
2018-07-19T10:32:15.762Z,33.10
2018-07-19T10:34:42.604Z,33.10
2018-07-19T10:37:09.656Z,32.70
2018-07-19T10:39:36.712Z,32.40
2018-07-19T10:42:03.867Z,32.40
2018-07-19T10:44:30.818Z,32.10
2018-07-19T10:46:57.770Z,32.00
2018-07-19T10:49:24.576Z,32.10
2018-07-19T10:51:52.325Z,32.00
2018-07-19T10:54:19.115Z,32.00
2018-07-19T10:56:46.088Z,32.30
2018-07-19T10:59:13.140Z,32.20
2018-07-19T11:01:40.398Z,32.20
2018-07-19T11:04:07.348Z,31.60
2018-07-19T11:06:35.225Z,31.80
2018-07-19T11:09:02.176Z,31.70
2018-07-19T11:11:29.126Z,31.70
2018-07-19T11:13:56.080Z,31.20
2018-07-19T11:16:23.166Z,31.30
2018-07-19T11:18:53.054Z,30.90
2018-07-19T11:21:20.819Z,30.80
2018-07-19T11:23:47.977Z,30.80
2018-07-19T11:26:14.925Z,31.10
2018-07-19T11:28:41.754Z,31.10
2018-07-19T11:31:08.627Z,31.60
2018-07-19T11:33:35.887Z,31.70
2018-07-19T11:36:02.833Z,31.20
2018-07-19T11:38:29.686Z,31.20
2018-07-19T11:40:56.634Z,31.60
2018-07-19T11:43:23.590Z,31.20
2018-07-19T11:45:50.412Z,31.80
2018-07-19T11:48:17.210Z,32.10
2018-07-19T11:50:45.773Z,32.10
2018-07-19T11:53:12.572Z,32.10
2018-07-19T11:55:39.516Z,31.70
2018-07-19T11:58:07.138Z,31.00
2018-07-19T12:00:34.088Z,30.90
2018-07-19T12:03:01.158Z,30.50
2018-07-19T12:05:28.093Z,30.30
2018-07-19T12:07:55.709Z,30.40
2018-07-19T12:10:23.426Z,30.80
2018-07-19T12:12:50.380Z,30.70
2018-07-19T12:15:17.145Z,31.00
2018-07-19T12:17:44.077Z,31.60
2018-07-19T12:20:10.893Z,31.50
2018-07-19T12:22:38.697Z,31.90
2018-07-19T12:25:06.159Z,31.80
2018-07-19T12:27:33.110Z,31.40
2018-07-19T12:29:59.957Z,31.30
2018-07-19T12:32:26.816Z,31.20
2018-07-19T12:34:53.656Z,31.10
2018-07-19T12:37:20.608Z,30.30
2018-07-19T12:39:47.561Z,30.00
2018-07-19T12:42:14.510Z,30.30
2018-07-19T12:44:41.362Z,30.40
2018-07-19T12:47:08.207Z,30.30
2018-07-19T12:49:35.061Z,30.20
2018-07-19T12:52:02.524Z,30.10
2018-07-19T12:54:29.983Z,30.00
2018-07-19T12:56:56.849Z,29.80
2018-07-19T12:59:23.786Z,29.50
2018-07-19T13:01:51.044Z,29.40
2018-07-19T13:04:17.892Z,29.50
2018-07-19T13:06:44.946Z,29.30
2018-07-19T13:09:13.024Z,29.60
2018-07-19T13:11:40.075Z,29.60
2018-07-19T13:14:07.640Z,29.80
2018-07-19T13:16:34.592Z,29.90
2018-07-19T13:19:01.648Z,29.90
2018-07-19T13:21:28.699Z,30.00
2018-07-19T13:23:56.087Z,30.10
2018-07-19T13:26:24.037Z,30.30
2018-07-19T13:28:50.985Z,30.30
2018-07-19T13:31:18.234Z,30.50
2018-07-19T13:33:45.197Z,30.80
2018-07-19T13:36:12.250Z,31.00
2018-07-19T13:38:39.205Z,31.10
2018-07-19T13:41:06.766Z,31.00
2018-07-19T13:43:34.026Z,30.70
2018-07-19T13:46:00.873Z,30.80
2018-07-19T13:48:27.924Z,30.90
2018-07-19T13:50:54.750Z,30.80
2018-07-19T13:53:33.907Z,30.60
2018-07-19T13:56:01.163Z,30.60
2018-07-19T13:58:28.115Z,30.80
2018-07-19T14:00:55.076Z,30.50
2018-07-19T14:03:22.019Z,30.60
2018-07-19T14:05:48.990Z,30.20
2018-07-19T14:08:16.227Z,30.20
2018-07-19T14:10:44.103Z,30.60
2018-07-19T14:13:11.265Z,30.50
2018-07-19T14:15:38.412Z,30.20
2018-07-19T14:18:05.260Z,30.60
2018-07-19T14:20:32.624Z,30.30
2018-07-19T14:22:59.471Z,30.00
2018-07-19T14:25:27.566Z,30.10
2018-07-19T14:27:54.498Z,29.90
2018-07-19T14:30:21.449Z,29.80
2018-07-19T14:32:48.401Z,29.60
2018-07-19T14:35:15.661Z,29.40
2018-07-19T14:37:42.713Z,29.10
2018-07-19T14:40:09.664Z,29.00
2018-07-19T14:42:37.026Z,29.00
2018-07-19T14:45:04.078Z,28.80
2018-07-19T14:47:31.030Z,28.70
2018-07-19T14:49:58.295Z,28.70
2018-07-19T14:52:25.959Z,28.70
2018-07-19T14:54:52.806Z,28.70
2018-07-19T14:57:19.757Z,28.70
2018-07-19T14:59:46.811Z,28.50
2018-07-19T15:02:13.663Z,28.50
2018-07-19T15:04:40.713Z,28.50
2018-07-19T15:07:07.562Z,28.60
2018-07-19T15:09:35.231Z,28.70
2018-07-19T15:12:02.692Z,28.80
2018-07-19T15:14:29.643Z,28.80
2018-07-19T15:16:56.492Z,28.60
2018-07-19T15:19:23.547Z,28.60
2018-07-19T15:21:50.505Z,28.30
2018-07-19T15:24:17.656Z,28.30
2018-07-19T15:26:45.639Z,28.30
2018-07-19T15:29:13.806Z,28.50
2018-07-19T15:31:40.860Z,28.40
2018-07-19T15:34:07.916Z,28.70
2018-07-19T15:36:34.870Z,28.60
2018-07-19T15:39:03.047Z,28.60
2018-07-19T15:41:30.099Z,28.50
2018-07-19T15:43:57.049Z,28.60
2018-07-19T15:46:24.104Z,28.50
2018-07-19T15:48:51.878Z,28.40
2018-07-19T15:51:18.927Z,28.30
2018-07-19T15:53:47.054Z,28.40
2018-07-19T15:56:14.674Z,28.50
2018-07-19T15:58:41.624Z,28.50
2018-07-19T16:01:08.677Z,28.50
2018-07-19T16:03:35.630Z,28.50
2018-07-19T16:06:02.787Z,28.60
2018-07-19T16:08:30.147Z,28.60
2018-07-19T16:10:57.096Z,28.60
2018-07-19T16:13:24.867Z,28.50
2018-07-19T16:15:52.229Z,28.40
2018-07-19T16:18:19.189Z,28.50
2018-07-19T16:20:46.537Z,28.40
2018-07-19T16:23:13.595Z,28.20
2018-07-19T16:25:40.646Z,28.20
2018-07-19T16:28:07.496Z,28.10
2018-07-19T16:30:34.753Z,27.90
2018-07-19T16:33:02.014Z,27.80
2018-07-19T16:35:29.070Z,27.70
2018-07-19T16:37:56.938Z,27.60
2018-07-19T16:40:24.812Z,27.50
2018-07-19T16:42:52.898Z,27.30
2018-07-19T16:45:20.043Z,27.20
2018-07-19T16:47:47.003Z,27.20
2018-07-19T16:50:14.048Z,27.20
2018-07-19T16:52:41.001Z,27.00
2018-07-19T16:55:08.055Z,26.80
2018-07-19T16:57:35.417Z,26.80
2018-07-19T17:00:03.393Z,26.70
2018-07-19T17:02:30.340Z,26.70
2018-07-19T17:04:57.099Z,26.50
2018-07-19T17:07:24.449Z,26.40
2018-07-19T17:09:53.140Z,26.40
2018-07-19T17:12:20.910Z,26.30
2018-07-19T17:14:47.859Z,26.20
2018-07-19T17:17:15.544Z,26.10
2018-07-19T17:19:43.093Z,26.00
2018-07-19T17:22:10.149Z,26.00
2018-07-19T17:24:36.995Z,25.80
2018-07-19T17:27:03.949Z,25.70
2018-07-19T17:29:30.798Z,25.50
2018-07-19T17:31:57.748Z,25.50
2018-07-19T17:34:24.750Z,25.40
2018-07-19T17:36:52.263Z,25.10
2018-07-19T17:39:19.216Z,25.10
2018-07-19T17:41:46.066Z,25.00
2018-07-19T17:44:12.950Z,24.80
2018-07-19T17:46:39.864Z,24.80
2018-07-19T17:49:06.803Z,24.70
2018-07-19T17:51:33.657Z,24.60
2018-07-19T17:54:00.621Z,24.60
2018-07-19T17:56:29.516Z,24.50
2018-07-19T17:58:56.359Z,24.50
2018-07-19T18:01:23.211Z,24.50
2018-07-19T18:03:51.187Z,24.30
2018-07-19T18:06:18.239Z,24.30
2018-07-19T18:08:45.190Z,24.20
2018-07-19T18:11:12.554Z,24.20
2018-07-19T18:13:39.398Z,24.10
2018-07-19T18:16:06.248Z,24.00
2018-07-19T18:18:33.200Z,23.90
2018-07-19T18:21:00.157Z,23.80
2018-07-19T18:23:27.616Z,23.70
2018-07-19T18:25:54.769Z,23.60
2018-07-19T18:28:22.337Z,23.50
2018-07-19T18:30:50.208Z,23.20
2018-07-19T18:33:17.158Z,23.20
2018-07-19T18:35:44.110Z,23.20
2018-07-19T18:38:11.063Z,23.10
2018-07-19T18:40:38.421Z,23.10
2018-07-19T18:43:05.374Z,22.90
2018-07-19T18:45:32.119Z,22.80
2018-07-19T18:47:59.096Z,22.70
2018-07-19T18:50:26.130Z,22.70
2018-07-19T18:52:53.078Z,22.60
2018-07-19T18:55:20.032Z,22.50
2018-07-19T18:57:46.979Z,22.40
2018-07-19T19:00:13.828Z,22.30
2018-07-19T19:02:40.779Z,22.30
2018-07-19T19:05:07.892Z,22.10
2018-07-19T19:07:35.839Z,22.00
2018-07-19T19:10:02.761Z,21.90
2018-07-19T19:12:29.607Z,21.70
2018-07-19T19:14:56.459Z,21.70
2018-07-19T19:17:23.308Z,21.60
2018-07-19T19:19:50.256Z,21.50
2018-07-19T19:22:18.305Z,21.40
2018-07-19T19:24:46.005Z,21.30
2018-07-19T19:27:12.871Z,21.20
2018-07-19T19:29:39.700Z,21.10
2018-07-19T19:32:06.651Z,21.00
2018-07-19T19:34:33.603Z,20.90
2018-07-19T19:37:01.077Z,20.80
2018-07-19T19:39:28.633Z,20.70
2018-07-19T19:41:56.301Z,20.60
2018-07-19T19:44:23.676Z,20.60
2018-07-19T19:46:50.509Z,20.60
2018-07-19T19:49:18.074Z,20.50
2018-07-19T19:51:45.843Z,20.50
2018-07-19T19:54:12.736Z,20.50
2018-07-19T19:56:40.363Z,20.40
2018-07-19T19:59:07.212Z,20.40
2018-07-19T20:01:34.570Z,20.30
2018-07-19T20:04:01.522Z,20.30
2018-07-19T20:06:28.473Z,20.20
2018-07-19T20:08:55.325Z,20.10
2018-07-19T20:11:22.192Z,20.00
2018-07-19T20:13:49.020Z,20.00
2018-07-19T20:16:15.972Z,19.90
2018-07-19T20:18:42.925Z,19.90
2018-07-19T20:21:09.771Z,19.90
2018-07-19T20:23:37.030Z,19.80
2018-07-19T20:26:03.981Z,19.80
2018-07-19T20:28:30.936Z,19.80
2018-07-19T20:30:58.196Z,19.80
2018-07-19T20:33:24.968Z,19.80
2018-07-19T20:35:51.891Z,19.70
2018-07-19T20:38:18.747Z,19.60
2018-07-19T20:40:45.592Z,19.50
2018-07-19T20:43:12.744Z,19.40
2018-07-19T20:45:39.628Z,19.30
2018-07-19T20:48:06.442Z,19.30
2018-07-19T20:50:33.393Z,19.20
2018-07-19T20:53:02.312Z,19.10
2018-07-19T20:55:29.546Z,19.10
2018-07-19T20:57:56.500Z,19.10
2018-07-19T21:00:23.476Z,19.10
2018-07-19T21:02:51.221Z,19.20
2018-07-19T21:05:18.071Z,19.10
2018-07-19T21:07:45.960Z,19.20
2018-07-19T21:10:13.884Z,19.10
2018-07-19T21:12:40.970Z,19.20
2018-07-19T21:15:08.640Z,19.20
2018-07-19T21:17:35.899Z,19.20
2018-07-19T21:20:04.280Z,19.20
2018-07-19T21:22:31.128Z,19.20
2018-07-19T21:24:58.082Z,19.20
2018-07-19T21:27:29.814Z,19.10
2018-07-19T21:29:58.634Z,19.10
2018-07-19T21:32:26.496Z,19.10
2018-07-19T21:34:54.561Z,19.10
2018-07-19T21:37:22.561Z,19.10
2018-07-19T21:39:50.493Z,19.20
2018-07-19T21:42:18.245Z,19.10
2018-07-19T21:44:45.877Z,19.10
2018-07-19T21:47:13.036Z,19.10
2018-07-19T21:49:41.003Z,19.10
2018-07-19T21:52:07.784Z,19.10
2018-07-19T21:54:34.851Z,19.10
2018-07-19T21:57:02.799Z,19.10
2018-07-19T21:59:33.568Z,19.00
2018-07-19T22:02:01.705Z,19.00
2018-07-19T22:04:30.295Z,19.00
2018-07-19T22:06:57.450Z,19.00
2018-07-19T22:09:25.800Z,19.00
2018-07-19T22:11:53.800Z,18.90
2018-07-19T22:14:23.734Z,18.90
2018-07-19T22:16:51.699Z,18.80
2018-07-19T22:19:19.599Z,18.80
2018-07-19T22:21:47.330Z,18.80
2018-07-19T22:24:14.400Z,18.80
2018-07-19T22:26:41.439Z,18.80
2018-07-19T22:29:08.392Z,18.80
2018-07-19T22:31:35.239Z,18.80
2018-07-19T22:34:02.496Z,18.80
2018-07-19T22:36:29.452Z,18.80
2018-07-19T22:38:56.296Z,18.70
2018-07-19T22:41:23.146Z,18.80
2018-07-19T22:43:50.201Z,18.80
2018-07-19T22:46:17.156Z,18.80
2018-07-19T22:48:44.103Z,18.80
2018-07-19T22:51:11.158Z,18.80
2018-07-19T22:53:38.106Z,18.80
2018-07-19T22:56:05.366Z,18.70
2018-07-19T22:58:32.317Z,18.70
2018-07-19T23:00:59.268Z,18.70
2018-07-19T23:03:26.220Z,18.70
2018-07-19T23:05:53.888Z,18.70
2018-07-19T23:08:20.839Z,18.70
2018-07-19T23:10:47.691Z,18.70
2018-07-19T23:13:14.641Z,18.80
2018-07-19T23:15:41.489Z,18.70
2018-07-19T23:18:08.442Z,18.70
2018-07-19T23:20:35.393Z,18.70
2018-07-19T23:23:02.546Z,18.70
2018-07-19T23:25:30.466Z,18.70
2018-07-19T23:27:57.473Z,18.60
2018-07-19T23:30:24.273Z,18.60
2018-07-19T23:32:52.846Z,18.50
2018-07-19T23:35:19.864Z,18.50
2018-07-19T23:37:46.815Z,18.40
2018-07-19T23:40:13.767Z,18.40
2018-07-19T23:42:40.715Z,18.30
2018-07-19T23:45:07.565Z,18.30
2018-07-19T23:47:34.516Z,18.20
2018-07-19T23:50:01.468Z,18.20
2018-07-19T23:52:28.422Z,18.10
2018-07-19T23:54:55.275Z,18.10
2018-07-19T23:57:22.222Z,18.00
2018-07-19T23:59:49.274Z,18.00
